sensor_id;sensor_type;location;lat;lon;timestamp;P1;durP1;ratioP1;P2;durP2;ratioP2
66946;SDS011;53853;51.982;5.928;2023-12-14T00:02:21;19.65;;;14.77;;
66946;SDS011;53853;51.982;5.928;2023-12-14T00:04:51;15.73;;;13.30;;
66946;SDS011;53853;51.982;5.928;2023-12-14T00:07:21;12.90;;;11.50;;
66946;SDS011;53853;51.982;5.928;2023-12-14T00:09:51;11.82;;;10.45;;
66946;SDS011;53853;51.982;5.928;2023-12-14T00:12:21;13.55;;;11.57;;
66946;SDS011;53853;51.982;5.928;2023-12-14T00:14:53;16.08;;;14.25;;
66946;SDS011;53853;51.982;5.928;2023-12-14T00:17:23;12.93;;;11.63;;
66946;SDS011;53853;51.982;5.928;2023-12-14T00:19:53;17.27;;;13.77;;
66946;SDS011;53853;51.982;5.928;2023-12-14T00:22:22;15.63;;;12.50;;
66946;SDS011;53853;51.982;5.928;2023-12-14T00:24:52;12.85;;;10.90;;
66946;SDS011;53853;51.982;5.928;2023-12-14T00:27:22;17.08;;;13.02;;
66946;SDS011;53853;51.982;5.928;2023-12-14T00:29:54;21.15;;;16.23;;
66946;SDS011;53853;51.982;5.928;2023-12-14T00:32:24;16.13;;;13.65;;
66946;SDS011;53853;51.982;5.928;2023-12-14T00:34:54;13.23;;;10.32;;
66946;SDS011;53853;51.982;5.928;2023-12-14T00:37:24;13.90;;;9.93;;
66946;SDS011;53853;51.982;5.928;2023-12-14T00:39:54;18.83;;;14.38;;
66946;SDS011;53853;51.982;5.928;2023-12-14T00:42:23;14.30;;;12.25;;
66946;SDS011;53853;51.982;5.928;2023-12-14T00:44:56;17.05;;;14.55;;
66946;SDS011;53853;51.982;5.928;2023-12-14T00:47:26;14.93;;;11.30;;
66946;SDS011;53853;51.982;5.928;2023-12-14T00:49:56;15.93;;;13.40;;
66946;SDS011;53853;51.982;5.928;2023-12-14T00:52:26;12.15;;;10.68;;
66946;SDS011;53853;51.982;5.928;2023-12-14T00:54:55;18.85;;;14.50;;
66946;SDS011;53853;51.982;5.928;2023-12-14T00:57:25;14.98;;;11.75;;
66946;SDS011;53853;51.982;5.928;2023-12-14T00:59:58;14.48;;;12.75;;
66946;SDS011;53853;51.982;5.928;2023-12-14T01:02:28;12.75;;;11.43;;
66946;SDS011;53853;51.982;5.928;2023-12-14T01:04:58;13.05;;;11.75;;
66946;SDS011;53853;51.982;5.928;2023-12-14T01:07:28;12.38;;;10.98;;
66946;SDS011;53853;51.982;5.928;2023-12-14T01:09:58;16.98;;;13.35;;
66946;SDS011;53853;51.982;5.928;2023-12-14T01:12:30;13.38;;;10.80;;
66946;SDS011;53853;51.982;5.928;2023-12-14T01:15:03;15.85;;;13.27;;
66946;SDS011;53853;51.982;5.928;2023-12-14T01:17:33;14.20;;;12.65;;
66946;SDS011;53853;51.982;5.928;2023-12-14T01:20:04;13.23;;;11.82;;
66946;SDS011;53853;51.982;5.928;2023-12-14T01:22:36;13.75;;;11.23;;
66946;SDS011;53853;51.982;5.928;2023-12-14T01:25:06;16.70;;;12.48;;
66946;SDS011;53853;51.982;5.928;2023-12-14T01:27:36;12.70;;;10.95;;
66946;SDS011;53853;51.982;5.928;2023-12-14T01:30:09;12.18;;;10.90;;
66946;SDS011;53853;51.982;5.928;2023-12-14T01:32:40;13.40;;;12.00;;
66946;SDS011;53853;51.982;5.928;2023-12-14T01:35:10;16.65;;;12.57;;
66946;SDS011;53853;51.982;5.928;2023-12-14T01:37:40;14.77;;;12.40;;
66946;SDS011;53853;51.982;5.928;2023-12-14T01:40:10;12.90;;;10.48;;
66946;SDS011;53853;51.982;5.928;2023-12-14T01:42:40;13.85;;;12.00;;
66946;SDS011;53853;51.982;5.928;2023-12-14T01:45:13;12.32;;;11.13;;
66946;SDS011;53853;51.982;5.928;2023-12-14T01:47:43;12.23;;;10.82;;
66946;SDS011;53853;51.982;5.928;2023-12-14T01:50:12;12.13;;;10.70;;
66946;SDS011;53853;51.982;5.928;2023-12-14T01:52:43;13.05;;;11.38;;
66946;SDS011;53853;51.982;5.928;2023-12-14T01:55:13;15.02;;;12.68;;
66946;SDS011;53853;51.982;5.928;2023-12-14T01:57:43;12.18;;;10.57;;
66946;SDS011;53853;51.982;5.928;2023-12-14T02:00:17;14.98;;;13.10;;
66946;SDS011;53853;51.982;5.928;2023-12-14T02:02:55;13.30;;;11.82;;
66946;SDS011;53853;51.982;5.928;2023-12-14T02:05:25;13.10;;;11.75;;
66946;SDS011;53853;51.982;5.928;2023-12-14T02:07:55;14.93;;;13.30;;
66946;SDS011;53853;51.982;5.928;2023-12-14T02:10:25;14.45;;;12.95;;
66946;SDS011;53853;51.982;5.928;2023-12-14T02:12:55;13.43;;;12.00;;
66946;SDS011;53853;51.982;5.928;2023-12-14T02:15:27;14.48;;;12.40;;
66946;SDS011;53853;51.982;5.928;2023-12-14T02:17:57;13.85;;;12.45;;
66946;SDS011;53853;51.982;5.928;2023-12-14T02:20:27;11.88;;;10.27;;
66946;SDS011;53853;51.982;5.928;2023-12-14T02:22:59;11.75;;;9.65;;
66946;SDS011;53853;51.982;5.928;2023-12-14T02:25:29;13.23;;;11.43;;
66946;SDS011;53853;51.982;5.928;2023-12-14T02:27:59;14.52;;;13.02;;
66946;SDS011;53853;51.982;5.928;2023-12-14T02:30:29;11.85;;;10.35;;
66946;SDS011;53853;51.982;5.928;2023-12-14T02:32:58;15.82;;;14.05;;
66946;SDS011;53853;51.982;5.928;2023-12-14T02:35:28;12.55;;;11.25;;
66946;SDS011;53853;51.982;5.928;2023-12-14T02:38:01;13.23;;;11.82;;
66946;SDS011;53853;51.982;5.928;2023-12-14T02:40:30;12.75;;;11.43;;
66946;SDS011;53853;51.982;5.928;2023-12-14T02:43:00;13.77;;;11.95;;
66946;SDS011;53853;51.982;5.928;2023-12-14T02:45:31;13.90;;;12.25;;
66946;SDS011;53853;51.982;5.928;2023-12-14T02:48:06;12.13;;;10.82;;
66946;SDS011;53853;51.982;5.928;2023-12-14T02:50:36;11.80;;;10.60;;
66946;SDS011;53853;51.982;5.928;2023-12-14T02:53:09;12.05;;;10.80;;
66946;SDS011;53853;51.982;5.928;2023-12-14T02:55:38;14.05;;;12.18;;
66946;SDS011;53853;51.982;5.928;2023-12-14T02:58:08;15.85;;;13.52;;
66946;SDS011;53853;51.982;5.928;2023-12-14T03:00:38;13.77;;;11.18;;
66946;SDS011;53853;51.982;5.928;2023-12-14T03:03:08;11.10;;;9.55;;
66946;SDS011;53853;51.982;5.928;2023-12-14T03:05:37;13.02;;;11.25;;
66946;SDS011;53853;51.982;5.928;2023-12-14T03:08:10;12.45;;;11.20;;
66946;SDS011;53853;51.982;5.928;2023-12-14T03:10:40;11.63;;;9.95;;
66946;SDS011;53853;51.982;5.928;2023-12-14T03:13:09;12.13;;;10.90;;
66946;SDS011;53853;51.982;5.928;2023-12-14T03:15:39;13.05;;;11.57;;
66946;SDS011;53853;51.982;5.928;2023-12-14T03:18:12;12.05;;;10.82;;
66946;SDS011;53853;51.982;5.928;2023-12-14T03:20:41;11.13;;;9.93;;
66946;SDS011;53853;51.982;5.928;2023-12-14T03:23:14;11.60;;;10.40;;
66946;SDS011;53853;51.982;5.928;2023-12-14T03:25:44;10.05;;;9.05;;
66946;SDS011;53853;51.982;5.928;2023-12-14T03:28:14;11.35;;;10.15;;
66946;SDS011;53853;51.982;5.928;2023-12-14T03:30:43;11.68;;;10.48;;
66946;SDS011;53853;51.982;5.928;2023-12-14T03:33:14;9.77;;;8.77;;
66946;SDS011;53853;51.982;5.928;2023-12-14T03:35:44;10.10;;;8.75;;
66946;SDS011;53853;51.982;5.928;2023-12-14T03:38:16;9.68;;;8.50;;
66946;SDS011;53853;51.982;5.928;2023-12-14T03:40:46;10.68;;;9.57;;
66946;SDS011;53853;51.982;5.928;2023-12-14T03:43:16;12.82;;;11.52;;
66946;SDS011;53853;51.982;5.928;2023-12-14T03:45:45;10.82;;;9.73;;
66946;SDS011;53853;51.982;5.928;2023-12-14T03:48:15;11.23;;;10.13;;
66946;SDS011;53853;51.982;5.928;2023-12-14T03:50:45;8.77;;;7.88;;
66946;SDS011;53853;51.982;5.928;2023-12-14T03:53:17;10.07;;;9.13;;
66946;SDS011;53853;51.982;5.928;2023-12-14T03:55:47;11.30;;;10.20;;
66946;SDS011;53853;51.982;5.928;2023-12-14T03:58:17;10.70;;;9.60;;
66946;SDS011;53853;51.982;5.928;2023-12-14T04:00:47;11.82;;;10.73;;
66946;SDS011;53853;51.982;5.928;2023-12-14T04:03:17;11.63;;;10.52;;
66946;SDS011;53853;51.982;5.928;2023-12-14T04:05:46;10.70;;;9.63;;
66946;SDS011;53853;51.982;5.928;2023-12-14T04:08:19;12.48;;;11.20;;
66946;SDS011;53853;51.982;5.928;2023-12-14T04:10:49;11.10;;;10.00;;
66946;SDS011;53853;51.982;5.928;2023-12-14T04:13:18;9.40;;;8.50;;
66946;SDS011;53853;51.982;5.928;2023-12-14T04:15:48;8.07;;;7.28;;
66946;SDS011;53853;51.982;5.928;2023-12-14T04:18:18;9.13;;;8.00;;
66946;SDS011;53853;51.982;5.928;2023-12-14T04:20:48;14.80;;;11.20;;
66946;SDS011;53853;51.982;5.928;2023-12-14T04:23:20;12.02;;;10.82;;
66946;SDS011;53853;51.982;5.928;2023-12-14T04:25:50;10.95;;;9.90;;
66946;SDS011;53853;51.982;5.928;2023-12-14T04:28:20;9.27;;;8.38;;
66946;SDS011;53853;51.982;5.928;2023-12-14T04:30:50;9.80;;;8.88;;
66946;SDS011;53853;51.982;5.928;2023-12-14T04:33:20;9.55;;;8.65;;
66946;SDS011;53853;51.982;5.928;2023-12-14T04:35:50;9.40;;;8.50;;
66946;SDS011;53853;51.982;5.928;2023-12-14T04:38:22;8.20;;;7.40;;
66946;SDS011;53853;51.982;5.928;2023-12-14T04:40:52;8.32;;;7.53;;
66946;SDS011;53853;51.982;5.928;2023-12-14T04:43:21;13.25;;;10.07;;
66946;SDS011;53853;51.982;5.928;2023-12-14T04:45:55;11.80;;;9.88;;
66946;SDS011;53853;51.982;5.928;2023-12-14T04:48:25;10.82;;;9.73;;
66946;SDS011;53853;51.982;5.928;2023-12-14T04:50:54;10.70;;;9.60;;
66946;SDS011;53853;51.982;5.928;2023-12-14T04:53:27;9.20;;;8.35;;
66946;SDS011;53853;51.982;5.928;2023-12-14T04:55:56;9.23;;;8.25;;
66946;SDS011;53853;51.982;5.928;2023-12-14T04:58:26;13.00;;;10.85;;
66946;SDS011;53853;51.982;5.928;2023-12-14T05:00:56;11.52;;;10.32;;
66946;SDS011;53853;51.982;5.928;2023-12-14T05:03:26;12.27;;;11.07;;
66946;SDS011;53853;51.982;5.928;2023-12-14T05:05:56;9.38;;;8.48;;
66946;SDS011;53853;51.982;5.928;2023-12-14T05:08:28;11.25;;;10.07;;
66946;SDS011;53853;51.982;5.928;2023-12-14T05:10:58;10.25;;;8.93;;
66946;SDS011;53853;51.982;5.928;2023-12-14T05:13:28;11.70;;;10.50;;
66946;SDS011;53853;51.982;5.928;2023-12-14T05:15:58;12.50;;;10.48;;
66946;SDS011;53853;51.982;5.928;2023-12-14T05:18:28;11.10;;;9.90;;
66946;SDS011;53853;51.982;5.928;2023-12-14T05:20:58;12.63;;;11.40;;
66946;SDS011;53853;51.982;5.928;2023-12-14T05:23:31;13.30;;;11.90;;
66946;SDS011;53853;51.982;5.928;2023-12-14T05:26:01;10.75;;;9.65;;
66946;SDS011;53853;51.982;5.928;2023-12-14T05:28:32;10.85;;;9.52;;
66946;SDS011;53853;51.982;5.928;2023-12-14T05:31:01;11.27;;;10.18;;
66946;SDS011;53853;51.982;5.928;2023-12-14T05:33:32;9.20;;;8.30;;
66946;SDS011;53853;51.982;5.928;2023-12-14T05:36:06;10.55;;;8.80;;
66946;SDS011;53853;51.982;5.928;2023-12-14T05:38:40;14.23;;;12.68;;
66946;SDS011;53853;51.982;5.928;2023-12-14T05:41:10;10.88;;;9.77;;
66946;SDS011;53853;51.982;5.928;2023-12-14T05:43:41;9.80;;;8.80;;
66946;SDS011;53853;51.982;5.928;2023-12-14T05:46:19;9.20;;;8.27;;
66946;SDS011;53853;51.982;5.928;2023-12-14T05:48:50;10.73;;;9.63;;
66946;SDS011;53853;51.982;5.928;2023-12-14T05:51:26;8.40;;;7.55;;
66946;SDS011;53853;51.982;5.928;2023-12-14T05:53:59;8.27;;;7.07;;
66946;SDS011;53853;51.982;5.928;2023-12-14T05:56:29;12.43;;;10.80;;
66946;SDS011;53853;51.982;5.928;2023-12-14T05:58:59;10.48;;;9.43;;
66946;SDS011;53853;51.982;5.928;2023-12-14T06:01:29;8.88;;;7.97;;
66946;SDS011;53853;51.982;5.928;2023-12-14T06:03:58;9.95;;;8.95;;
66946;SDS011;53853;51.982;5.928;2023-12-14T06:06:28;11.05;;;9.95;;
66946;SDS011;53853;51.982;5.928;2023-12-14T06:09:01;10.80;;;8.98;;
66946;SDS011;53853;51.982;5.928;2023-12-14T06:11:32;10.95;;;9.00;;
66946;SDS011;53853;51.982;5.928;2023-12-14T06:14:02;10.35;;;9.13;;
66946;SDS011;53853;51.982;5.928;2023-12-14T06:16:32;11.27;;;8.23;;
66946;SDS011;53853;51.982;5.928;2023-12-14T06:19:02;10.23;;;8.90;;
66946;SDS011;53853;51.982;5.928;2023-12-14T06:21:32;10.18;;;8.32;;
66946;SDS011;53853;51.982;5.928;2023-12-14T06:24:05;9.15;;;8.18;;
66946;SDS011;53853;51.982;5.928;2023-12-14T06:26:34;9.27;;;7.90;;
66946;SDS011;53853;51.982;5.928;2023-12-14T06:31:38;8.98;;;7.68;;
66946;SDS011;53853;51.982;5.928;2023-12-14T06:34:08;9.45;;;8.45;;
66946;SDS011;53853;51.982;5.928;2023-12-14T06:36:41;10.43;;;8.23;;
66946;SDS011;53853;51.982;5.928;2023-12-14T06:39:14;9.50;;;8.43;;
66946;SDS011;53853;51.982;5.928;2023-12-14T06:41:44;7.60;;;6.80;;
66946;SDS011;53853;51.982;5.928;2023-12-14T06:44:14;9.30;;;7.20;;
66946;SDS011;53853;51.982;5.928;2023-12-14T06:46:43;9.00;;;7.00;;
66946;SDS011;53853;51.982;5.928;2023-12-14T06:49:13;7.60;;;6.65;;
66946;SDS011;53853;51.982;5.928;2023-12-14T06:51:43;8.95;;;7.03;;
66946;SDS011;53853;51.982;5.928;2023-12-14T06:54:16;9.63;;;7.78;;
66946;SDS011;53853;51.982;5.928;2023-12-14T06:56:45;8.60;;;6.82;;
66946;SDS011;53853;51.982;5.928;2023-12-14T06:59:15;8.00;;;6.88;;
66946;SDS011;53853;51.982;5.928;2023-12-14T07:01:45;7.28;;;6.53;;
66946;SDS011;53853;51.982;5.928;2023-12-14T07:04:17;8.57;;;6.10;;
66946;SDS011;53853;51.982;5.928;2023-12-14T07:06:50;7.40;;;5.38;;
66946;SDS011;53853;51.982;5.928;2023-12-14T07:09:23;7.05;;;5.90;;
66946;SDS011;53853;51.982;5.928;2023-12-14T07:11:53;6.40;;;5.40;;
66946;SDS011;53853;51.982;5.928;2023-12-14T07:14:23;7.05;;;5.90;;
66946;SDS011;53853;51.982;5.928;2023-12-14T07:16:53;6.85;;;6.03;;
66946;SDS011;53853;51.982;5.928;2023-12-14T07:19:23;7.93;;;5.38;;
66946;SDS011;53853;51.982;5.928;2023-12-14T07:21:53;6.10;;;5.50;;
66946;SDS011;53853;51.982;5.928;2023-12-14T07:24:25;9.35;;;7.95;;
66946;SDS011;53853;51.982;5.928;2023-12-14T07:26:55;7.68;;;6.03;;
66946;SDS011;53853;51.982;5.928;2023-12-14T07:29:25;7.07;;;6.18;;
66946;SDS011;53853;51.982;5.928;2023-12-14T07:31:55;7.35;;;5.80;;
66946;SDS011;53853;51.982;5.928;2023-12-14T07:34:25;6.97;;;5.63;;
66946;SDS011;53853;51.982;5.928;2023-12-14T07:36:55;7.28;;;6.13;;
66946;SDS011;53853;51.982;5.928;2023-12-14T07:39:27;7.63;;;6.30;;
66946;SDS011;53853;51.982;5.928;2023-12-14T07:41:57;6.40;;;5.55;;
66946;SDS011;53853;51.982;5.928;2023-12-14T07:44:27;6.72;;;5.95;;
66946;SDS011;53853;51.982;5.928;2023-12-14T07:46:57;8.20;;;6.50;;
66946;SDS011;53853;51.982;5.928;2023-12-14T07:49:28;7.20;;;6.35;;
66946;SDS011;53853;51.982;5.928;2023-12-14T07:51:58;7.45;;;6.28;;
66946;SDS011;53853;51.982;5.928;2023-12-14T07:54:30;6.20;;;5.53;;
66946;SDS011;53853;51.982;5.928;2023-12-14T07:57:00;6.30;;;5.65;;
66946;SDS011;53853;51.982;5.928;2023-12-14T07:59:29;5.78;;;5.18;;
66946;SDS011;53853;51.982;5.928;2023-12-14T08:01:59;5.70;;;5.10;;
66946;SDS011;53853;51.982;5.928;2023-12-14T08:04:29;7.10;;;6.30;;
66946;SDS011;53853;51.982;5.928;2023-12-14T08:06:59;5.70;;;5.10;;
66946;SDS011;53853;51.982;5.928;2023-12-14T08:09:31;6.10;;;5.18;;
66946;SDS011;53853;51.982;5.928;2023-12-14T08:12:01;6.72;;;5.38;;
66946;SDS011;53853;51.982;5.928;2023-12-14T08:14:35;5.32;;;4.55;;
66946;SDS011;53853;51.982;5.928;2023-12-14T08:17:09;6.80;;;5.38;;
66946;SDS011;53853;51.982;5.928;2023-12-14T08:19:39;6.38;;;5.75;;
66946;SDS011;53853;51.982;5.928;2023-12-14T08:22:09;6.18;;;4.95;;
66946;SDS011;53853;51.982;5.928;2023-12-14T08:24:43;5.60;;;4.43;;
66946;SDS011;53853;51.982;5.928;2023-12-14T08:27:13;7.03;;;5.57;;
66946;SDS011;53853;51.982;5.928;2023-12-14T08:29:43;6.63;;;5.90;;
66946;SDS011;53853;51.982;5.928;2023-12-14T08:32:13;5.55;;;4.97;;
66946;SDS011;53853;51.982;5.928;2023-12-14T08:34:43;5.13;;;4.32;;
66946;SDS011;53853;51.982;5.928;2023-12-14T08:37:13;6.75;;;5.97;;
66946;SDS011;53853;51.982;5.928;2023-12-14T08:39:45;10.18;;;6.63;;
66946;SDS011;53853;51.982;5.928;2023-12-14T08:42:15;6.90;;;6.05;;
66946;SDS011;53853;51.982;5.928;2023-12-14T08:44:45;6.47;;;5.78;;
66946;SDS011;53853;51.982;5.928;2023-12-14T08:47:15;6.10;;;5.40;;
66946;SDS011;53853;51.982;5.928;2023-12-14T08:49:44;6.82;;;6.13;;
66946;SDS011;53853;51.982;5.928;2023-12-14T08:52:14;6.50;;;5.65;;
66946;SDS011;53853;51.982;5.928;2023-12-14T08:54:48;6.68;;;5.57;;
66946;SDS011;53853;51.982;5.928;2023-12-14T08:57:17;9.80;;;7.55;;
66946;SDS011;53853;51.982;5.928;2023-12-14T08:59:47;7.18;;;6.47;;
66946;SDS011;53853;51.982;5.928;2023-12-14T09:02:17;9.02;;;6.47;;
66946;SDS011;53853;51.982;5.928;2023-12-14T09:04:47;5.60;;;5.00;;
66946;SDS011;53853;51.982;5.928;2023-12-14T09:07:17;6.68;;;5.63;;
66946;SDS011;53853;51.982;5.928;2023-12-14T09:09:50;6.53;;;5.82;;
66946;SDS011;53853;51.982;5.928;2023-12-14T09:12:19;5.95;;;5.35;;
66946;SDS011;53853;51.982;5.928;2023-12-14T09:14:50;5.75;;;5.18;;
66946;SDS011;53853;51.982;5.928;2023-12-14T09:17:19;5.88;;;4.63;;
66946;SDS011;53853;51.982;5.928;2023-12-14T09:19:49;6.53;;;5.57;;
66946;SDS011;53853;51.982;5.928;2023-12-14T09:22:19;4.90;;;4.28;;
66946;SDS011;53853;51.982;5.928;2023-12-14T09:24:51;5.35;;;4.85;;
66946;SDS011;53853;51.982;5.928;2023-12-14T09:27:21;6.70;;;6.03;;
66946;SDS011;53853;51.982;5.928;2023-12-14T09:29:51;8.07;;;6.78;;
66946;SDS011;53853;51.982;5.928;2023-12-14T09:32:21;8.68;;;7.55;;
66946;SDS011;53853;51.982;5.928;2023-12-14T09:34:51;8.52;;;7.63;;
66946;SDS011;53853;51.982;5.928;2023-12-14T09:37:22;6.60;;;5.68;;
66946;SDS011;53853;51.982;5.928;2023-12-14T09:39:54;7.55;;;6.75;;
66946;SDS011;53853;51.982;5.928;2023-12-14T09:42:24;7.88;;;7.07;;
66946;SDS011;53853;51.982;5.928;2023-12-14T09:44:54;6.82;;;5.80;;
66946;SDS011;53853;51.982;5.928;2023-12-14T09:47:25;9.25;;;8.38;;
66946;SDS011;53853;51.982;5.928;2023-12-14T09:49:55;7.68;;;6.50;;
66946;SDS011;53853;51.982;5.928;2023-12-14T09:52:27;7.15;;;6.45;;
66946;SDS011;53853;51.982;5.928;2023-12-14T09:54:59;8.73;;;7.28;;
66946;SDS011;53853;51.982;5.928;2023-12-14T09:57:30;7.90;;;7.10;;
66946;SDS011;53853;51.982;5.928;2023-12-14T09:59:59;7.63;;;6.80;;
66946;SDS011;53853;51.982;5.928;2023-12-14T10:02:35;7.78;;;6.20;;
66946;SDS011;53853;51.982;5.928;2023-12-14T10:05:06;7.85;;;6.43;;
66946;SDS011;53853;51.982;5.928;2023-12-14T10:10:12;6.47;;;5.65;;
66946;SDS011;53853;51.982;5.928;2023-12-14T10:12:51;10.13;;;6.40;;
66946;SDS011;53853;51.982;5.928;2023-12-14T10:15:22;6.68;;;5.97;;
66946;SDS011;53853;51.982;5.928;2023-12-14T10:17:52;6.57;;;5.88;;
66946;SDS011;53853;51.982;5.928;2023-12-14T10:20:23;9.05;;;7.18;;
66946;SDS011;53853;51.982;5.928;2023-12-14T10:22:54;8.68;;;6.88;;
66946;SDS011;53853;51.982;5.928;2023-12-14T10:25:27;7.88;;;6.30;;
66946;SDS011;53853;51.982;5.928;2023-12-14T10:27:57;8.90;;;6.55;;
66946;SDS011;53853;51.982;5.928;2023-12-14T10:30:28;9.60;;;7.32;;
66946;SDS011;53853;51.982;5.928;2023-12-14T10:32:59;7.82;;;6.85;;
66946;SDS011;53853;51.982;5.928;2023-12-14T10:35:29;11.00;;;6.85;;
66946;SDS011;53853;51.982;5.928;2023-12-14T10:38:01;6.55;;;5.55;;
66946;SDS011;53853;51.982;5.928;2023-12-14T10:40:38;7.38;;;6.63;;
66946;SDS011;53853;51.982;5.928;2023-12-14T10:43:09;10.48;;;7.78;;
66946;SDS011;53853;51.982;5.928;2023-12-14T10:45:40;9.23;;;7.53;;
66946;SDS011;53853;51.982;5.928;2023-12-14T10:48:15;9.07;;;7.20;;
66946;SDS011;53853;51.982;5.928;2023-12-14T10:50:47;7.70;;;6.25;;
66946;SDS011;53853;51.982;5.928;2023-12-14T10:53:18;7.93;;;6.10;;
66946;SDS011;53853;51.982;5.928;2023-12-14T10:55:51;9.55;;;6.95;;
66946;SDS011;53853;51.982;5.928;2023-12-14T10:58:24;9.23;;;8.10;;
66946;SDS011;53853;51.982;5.928;2023-12-14T11:00:58;9.10;;;7.95;;
66946;SDS011;53853;51.982;5.928;2023-12-14T11:03:32;6.68;;;5.50;;
66946;SDS011;53853;51.982;5.928;2023-12-14T11:06:03;7.33;;;5.73;;
66946;SDS011;53853;51.982;5.928;2023-12-14T11:08:44;7.05;;;5.65;;
66946;SDS011;53853;51.982;5.928;2023-12-14T11:11:16;8.27;;;7.13;;
66946;SDS011;53853;51.982;5.928;2023-12-14T11:13:46;7.15;;;6.22;;
66946;SDS011;53853;51.982;5.928;2023-12-14T11:16:19;7.90;;;6.80;;
66946;SDS011;53853;51.982;5.928;2023-12-14T11:18:55;8.43;;;7.07;;
66946;SDS011;53853;51.982;5.928;2023-12-14T11:22:11;7.03;;;5.70;;
66946;SDS011;53853;51.982;5.928;2023-12-14T11:24:51;7.72;;;6.45;;
66946;SDS011;53853;51.982;5.928;2023-12-14T11:27:28;8.18;;;7.35;;
66946;SDS011;53853;51.982;5.928;2023-12-14T11:29:59;8.55;;;7.40;;
66946;SDS011;53853;51.982;5.928;2023-12-14T11:32:30;11.88;;;8.00;;
66946;SDS011;53853;51.982;5.928;2023-12-14T11:35:00;9.43;;;7.10;;
66946;SDS011;53853;51.982;5.928;2023-12-14T11:37:30;9.38;;;7.10;;
66946;SDS011;53853;51.982;5.928;2023-12-14T11:40:01;7.65;;;6.20;;
66946;SDS011;53853;51.982;5.928;2023-12-14T11:42:36;9.50;;;7.35;;
66946;SDS011;53853;51.982;5.928;2023-12-14T11:45:06;8.77;;;7.55;;
66946;SDS011;53853;51.982;5.928;2023-12-14T11:47:37;9.05;;;7.22;;
66946;SDS011;53853;51.982;5.928;2023-12-14T11:50:07;8.73;;;6.15;;
66946;SDS011;53853;51.982;5.928;2023-12-14T11:52:38;6.80;;;5.95;;
66946;SDS011;53853;51.982;5.928;2023-12-14T11:55:09;5.75;;;5.10;;
66946;SDS011;53853;51.982;5.928;2023-12-14T11:57:42;7.47;;;6.25;;
66946;SDS011;53853;51.982;5.928;2023-12-14T12:00:16;8.30;;;7.50;;
66946;SDS011;53853;51.982;5.928;2023-12-14T12:02:46;9.38;;;7.93;;
66946;SDS011;53853;51.982;5.928;2023-12-14T12:05:16;9.93;;;8.65;;
66946;SDS011;53853;51.982;5.928;2023-12-14T12:07:47;10.70;;;9.05;;
66946;SDS011;53853;51.982;5.928;2023-12-14T12:10:17;10.43;;;8.38;;
66946;SDS011;53853;51.982;5.928;2023-12-14T12:12:49;10.57;;;8.82;;
66946;SDS011;53853;51.982;5.928;2023-12-14T12:15:30;10.38;;;8.57;;
66946;SDS011;53853;51.982;5.928;2023-12-14T12:18:02;10.55;;;8.45;;
66946;SDS011;53853;51.982;5.928;2023-12-14T12:20:34;8.02;;;6.45;;
66946;SDS011;53853;51.982;5.928;2023-12-14T12:23:04;8.80;;;7.85;;
66946;SDS011;53853;51.982;5.928;2023-12-14T12:25:34;8.27;;;6.45;;
66946;SDS011;53853;51.982;5.928;2023-12-14T12:28:06;6.53;;;5.70;;
66946;SDS011;53853;51.982;5.928;2023-12-14T12:30:36;6.78;;;5.95;;
66946;SDS011;53853;51.982;5.928;2023-12-14T12:33:07;7.95;;;6.90;;
66946;SDS011;53853;51.982;5.928;2023-12-14T12:35:37;7.72;;;6.88;;
66946;SDS011;53853;51.982;5.928;2023-12-14T12:38:07;8.80;;;7.45;;
66946;SDS011;53853;51.982;5.928;2023-12-14T12:40:36;7.20;;;5.70;;
66946;SDS011;53853;51.982;5.928;2023-12-14T12:43:09;8.00;;;6.72;;
66946;SDS011;53853;51.982;5.928;2023-12-14T12:45:39;9.10;;;6.72;;
66946;SDS011;53853;51.982;5.928;2023-12-14T12:48:09;6.82;;;5.40;;
66946;SDS011;53853;51.982;5.928;2023-12-14T12:50:40;7.22;;;5.47;;
66946;SDS011;53853;51.982;5.928;2023-12-14T12:53:10;7.05;;;6.32;;
66946;SDS011;53853;51.982;5.928;2023-12-14T12:55:40;6.05;;;4.78;;
66946;SDS011;53853;51.982;5.928;2023-12-14T12:58:12;9.35;;;6.88;;
66946;SDS011;53853;51.982;5.928;2023-12-14T13:00:42;9.68;;;7.90;;
66946;SDS011;53853;51.982;5.928;2023-12-14T13:03:12;10.65;;;8.10;;
66946;SDS011;53853;51.982;5.928;2023-12-14T13:05:42;9.88;;;7.93;;
66946;SDS011;53853;51.982;5.928;2023-12-14T13:08:13;10.55;;;8.68;;
66946;SDS011;53853;51.982;5.928;2023-12-14T13:10:43;8.90;;;7.35;;
66946;SDS011;53853;51.982;5.928;2023-12-14T13:13:16;9.15;;;7.13;;
66946;SDS011;53853;51.982;5.928;2023-12-14T13:15:46;8.45;;;6.65;;
66946;SDS011;53853;51.982;5.928;2023-12-14T13:18:16;8.07;;;6.28;;
66946;SDS011;53853;51.982;5.928;2023-12-14T13:20:46;8.85;;;7.95;;
66946;SDS011;53853;51.982;5.928;2023-12-14T13:23:15;8.13;;;7.05;;
66946;SDS011;53853;51.982;5.928;2023-12-14T13:25:45;7.55;;;6.68;;
66946;SDS011;53853;51.982;5.928;2023-12-14T13:28:18;7.60;;;6.38;;
66946;SDS011;53853;51.982;5.928;2023-12-14T13:30:49;7.43;;;6.60;;
66946;SDS011;53853;51.982;5.928;2023-12-14T13:33:20;6.25;;;5.55;;
66946;SDS011;53853;51.982;5.928;2023-12-14T13:35:49;7.28;;;5.85;;
66946;SDS011;53853;51.982;5.928;2023-12-14T13:38:20;7.40;;;6.00;;
66946;SDS011;53853;51.982;5.928;2023-12-14T13:40:50;6.43;;;5.05;;
66946;SDS011;53853;51.982;5.928;2023-12-14T13:43:22;6.85;;;5.40;;
66946;SDS011;53853;51.982;5.928;2023-12-14T13:45:52;7.20;;;5.72;;
66946;SDS011;53853;51.982;5.928;2023-12-14T13:48:23;6.38;;;5.15;;
66946;SDS011;53853;51.982;5.928;2023-12-14T13:50:54;6.22;;;5.60;;
66946;SDS011;53853;51.982;5.928;2023-12-14T13:53:24;7.20;;;5.70;;
66946;SDS011;53853;51.982;5.928;2023-12-14T13:55:54;7.85;;;5.97;;
66946;SDS011;53853;51.982;5.928;2023-12-14T13:58:26;7.95;;;5.90;;
66946;SDS011;53853;51.982;5.928;2023-12-14T14:00:56;8.15;;;6.70;;
66946;SDS011;53853;51.982;5.928;2023-12-14T14:03:26;8.02;;;6.18;;
66946;SDS011;53853;51.982;5.928;2023-12-14T14:05:56;6.20;;;5.45;;
66946;SDS011;53853;51.982;5.928;2023-12-14T14:08:25;7.45;;;5.65;;
66946;SDS011;53853;51.982;5.928;2023-12-14T14:10:57;11.15;;;7.88;;
66946;SDS011;53853;51.982;5.928;2023-12-14T14:13:29;6.78;;;6.07;;
66946;SDS011;53853;51.982;5.928;2023-12-14T14:16:00;10.00;;;7.70;;
66946;SDS011;53853;51.982;5.928;2023-12-14T14:18:31;9.98;;;6.65;;
66946;SDS011;53853;51.982;5.928;2023-12-14T14:21:00;10.60;;;8.80;;
66946;SDS011;53853;51.982;5.928;2023-12-14T14:23:33;8.48;;;7.07;;
66946;SDS011;53853;51.982;5.928;2023-12-14T14:26:03;8.27;;;7.38;;
66946;SDS011;53853;51.982;5.928;2023-12-14T14:28:36;7.05;;;6.35;;
66946;SDS011;53853;51.982;5.928;2023-12-14T14:31:05;11.48;;;8.07;;
66946;SDS011;53853;51.982;5.928;2023-12-14T14:33:35;9.57;;;7.90;;
66946;SDS011;53853;51.982;5.928;2023-12-14T14:36:05;8.77;;;7.47;;
66946;SDS011;53853;51.982;5.928;2023-12-14T14:38:36;8.23;;;7.10;;
66946;SDS011;53853;51.982;5.928;2023-12-14T14:41:06;7.15;;;6.30;;
66946;SDS011;53853;51.982;5.928;2023-12-14T14:43:38;9.45;;;8.40;;
66946;SDS011;53853;51.982;5.928;2023-12-14T14:46:08;8.75;;;7.82;;
66946;SDS011;53853;51.982;5.928;2023-12-14T14:48:38;10.45;;;8.80;;
66946;SDS011;53853;51.982;5.928;2023-12-14T14:51:08;10.82;;;9.73;;
66946;SDS011;53853;51.982;5.928;2023-12-14T14:53:38;8.88;;;7.43;;
66946;SDS011;53853;51.982;5.928;2023-12-14T14:56:09;9.50;;;8.50;;
66946;SDS011;53853;51.982;5.928;2023-12-14T14:58:41;10.35;;;8.77;;
66946;SDS011;53853;51.982;5.928;2023-12-14T15:01:11;11.18;;;10.00;;
66946;SDS011;53853;51.982;5.928;2023-12-14T15:03:41;11.05;;;9.05;;
66946;SDS011;53853;51.982;5.928;2023-12-14T15:06:11;11.05;;;9.82;;